Decoded Metar for LQSA (SARAJEVO in BOSNIA-HERCEGOVINA) (IATA:SJJ) | Meteo·Mobile Aviation Weather
aviador You're here:

LQSA Decoded Metar

SARAJEVO in BOSNIA-HERCEGOVINA
Report Time2019-01-20 20:30:00
UTC Time2019-01-20 20:56:03
Flight Rules ifr IFR
WindVRB at 01 kt
Visibility2500 m
Phenomena:Mist
Clouds:Overcast 007 Hf
Ceiling700 ft
Temp01°C (ISA -11)
Dew Point01°C (100% RH)
AAT-1.2°C
QNH1016 hPa
Density Alt374 ft
Elevation1,677 ft
Report Wrong Elevation
Raw Report
LQSA 202030Z VRB01KT 2500 BR OVC007 01/01 Q1016 NOSIG=

Extra information for LQSA:More info

Metar Taf Metar & Taf Last 4 Metars F.Rules Stats Wind Profile Meteogram Temp Stats Airport Information Weather charts Add Link Nearby VenuesMetar ALERT Operation Metar Decoded Social comments